This is the latest recevied weather packets stored in our database for station/object YN9ZAM-13. If no packets are shown the sender has not sent any weather packets the latest 1 day(s).
| Time | Temp. | Humidity | Pressure | Rain* | Wind** | Luminosity | Snow |
|---|---|---|---|---|---|---|---|
| 1778108015 | 32.22° C | 45% | 1009 hPa | 0 mm | - | - | - |
| 1778106214 | 28.89° C | 36% | 1009 hPa | 0 mm | - | - | - |
| 1778104413 | 30° C | 36% | 1009 hPa | 0 mm | - | - | - |
| 1778102612 | 31.67° C | 36% | 1008 hPa | 0 mm | - | - | - |
| 1778099610 | 33.33° C | 36% | 1008 hPa | 0 mm | - | - | - |
| 1778096608 | 36.11° C | 36% | 1009 hPa | 0 mm | - | - | - |
| 1778096008 | 36.67° C | 36% | 1009 hPa | 0 mm | - | - | - |
| 1778093006 | 33.33° C | 38% | 1010 hPa | 0 mm | - | - | - |
| 1778091805 | 34.44° C | 38% | 1011 hPa | 0 mm | - | - | - |
| 1778091205 | 34.44° C | 38% | 1011 hPa | 0 mm | - | - | - |
| 1778090604 | 35° C | 38% | 1011 hPa | 0 mm | - | - | - |
| 1778085802 | 31.11° C | 46% | 1013 hPa | 0 mm | - | - | - |
| 1778084001 | 32.22° C | 46% | 1013 hPa | 0 mm | - | - | - |
| 1778082800 | 33.33° C | 46% | 1013 hPa | 0 mm | - | - | - |
| 1778082200 | 33.89° C | 46% | 1013 hPa | 0 mm | - | - | - |
| 1778080999 | 28.33° C | 54% | 1013 hPa | 0 mm | - | - | - |
| 1778079198 | 30° C | 54% | 1013 hPa | 0 mm | - | - | - |
| 1778078598 | 30.56° C | 54% | 1013 hPa | 0 mm | - | - | - |
| 1778076797 | 27.22° C | 63% | 1013 hPa | 0 mm | - | - | - |
| 1778075596 | 28.33° C | 63% | 1013 hPa | 0 mm | - | - | - |
| 1778074996 | 28.89° C | 63% | 1013 hPa | 0 mm | - | - | - |
| 1778073195 | 25.56° C | 70% | 1013 hPa | 0 mm | - | - | - |
| 1778072595 | 26.11° C | 70% | 1013 hPa | 0 mm | - | - | - |
| 1778070194 | 23.89° C | 71% | 1013 hPa | 0 mm | - | - | - |
| 1778068993 | 24.44° C | 71% | 1013 hPa | 0 mm | - | - | - |
* Rain latest hour (hover to see other rain measurements)
** Current wind speed in m/s (hover to see current wind gust speed)